sensor_id;sensor_type;location;lat;lon;timestamp;temperature;humidity
10704;DHT22;5403;41.730;13.142;2022-11-20T11:19:13;15.20;99.90
10704;DHT22;5403;41.730;13.142;2022-11-20T11:21:46;15.30;99.90
10704;DHT22;5403;41.730;13.142;2022-11-20T11:24:21;15.50;99.90
10704;DHT22;5403;41.730;13.142;2022-11-20T12:01:48;16.50;99.90
10704;DHT22;5403;41.730;13.142;2022-11-20T12:04:23;16.50;99.90
10704;DHT22;5403;41.730;13.142;2022-11-20T12:11:41;16.50;99.90
10704;DHT22;5403;41.730;13.142;2022-11-20T12:14:16;16.60;99.90
10704;DHT22;5403;41.730;13.142;2022-11-20T12:33:54;17.80;99.90
10704;DHT22;5403;41.730;13.142;2022-11-20T12:36:42;18.10;99.90
10704;DHT22;5403;41.730;13.142;2022-11-20T12:44:24;18.60;99.90
10704;DHT22;5403;41.730;13.142;2022-11-20T12:47:17;18.90;99.90
10704;DHT22;5403;41.730;13.142;2022-11-20T12:50:01;19.00;99.90
10704;DHT22;5403;41.730;13.142;2022-11-20T12:52:41;19.10;99.90
10704;DHT22;5403;41.730;13.142;2022-11-20T12:55:29;19.10;99.90
10704;DHT22;5403;41.730;13.142;2022-11-20T12:58:08;19.00;99.90
10704;DHT22;5403;41.730;13.142;2022-11-20T13:10:45;19.50;99.90
10704;DHT22;5403;41.730;13.142;2022-11-20T13:13:25;19.70;99.90
10704;DHT22;5403;41.730;13.142;2022-11-20T13:16:00;19.60;99.90
10704;DHT22;5403;41.730;13.142;2022-11-20T13:18:38;19.70;99.90
10704;DHT22;5403;41.730;13.142;2022-11-20T13:21:19;19.70;99.90
10704;DHT22;5403;41.730;13.142;2022-11-20T13:23:49;19.90;99.90
10704;DHT22;5403;41.730;13.142;2022-11-20T13:26:24;19.80;99.90
10704;DHT22;5403;41.730;13.142;2022-11-20T13:29:04;20.00;99.90
10704;DHT22;5403;41.730;13.142;2022-11-20T13:31:34;20.00;99.90
10704;DHT22;5403;41.730;13.142;2022-11-20T13:34:05;20.00;99.90
10704;DHT22;5403;41.730;13.142;2022-11-20T13:36:34;19.90;99.90
10704;DHT22;5403;41.730;13.142;2022-11-20T13:39:02;19.70;99.90
10704;DHT22;5403;41.730;13.142;2022-11-20T13:41:34;19.50;99.90
10704;DHT22;5403;41.730;13.142;2022-11-20T13:44:13;19.50;99.90
10704;DHT22;5403;41.730;13.142;2022-11-20T13:46:43;19.30;99.90
10704;DHT22;5403;41.730;13.142;2022-11-20T13:49:18;19.20;99.90
10704;DHT22;5403;41.730;13.142;2022-11-20T13:51:51;19.20;99.90
10704;DHT22;5403;41.730;13.142;2022-11-20T13:54:44;19.10;99.90
10704;DHT22;5403;41.730;13.142;2022-11-20T14:06:41;18.40;99.90
10704;DHT22;5403;41.730;13.142;2022-11-20T14:09:12;18.20;99.90
10704;DHT22;5403;41.730;13.142;2022-11-20T14:11:47;17.90;99.90
10704;DHT22;5403;41.730;13.142;2022-11-20T14:14:17;17.80;99.90
10704;DHT22;5403;41.730;13.142;2022-11-20T14:16:47;17.70;99.90
10704;DHT22;5403;41.730;13.142;2022-11-20T14:19:29;17.60;99.90
10704;DHT22;5403;41.730;13.142;2022-11-20T14:22:18;17.60;99.90
